Time;durP1;ratioP1;P1;durP2;ratioP2;P2;SDS_P1;SDS_P2;PMS_P1;PMS_P2;Temp;Humidity;BMP_temperature;BMP_pressure;BME280_temperature;BME280_humidity;BME280_pressure;Samples;Min_cycle;Max_cycle;Signal;HPM_P1;HPM_P2
2023/09/20 00:01:48;;;;;;;1999.90;999.90;;;17.70;99.90;;;;;;5079258;28;20791;-70
2023/09/20 00:04:15;;;;;;;1999.90;999.90;;;17.70;99.90;;;;;;5087078;28;20436;-70
2023/09/20 00:06:42;;;;;;;1999.90;999.90;;;17.70;99.90;;;;;;5086279;28;20820;-71
2023/09/20 00:09:09;;;;;;;1999.90;999.90;;;17.70;99.90;;;;;;5087026;28;20430;-71
2023/09/20 00:11:36;;;;;;;1999.90;999.90;;;17.80;99.90;;;;;;5087252;28;20440;-69
2023/09/20 00:14:03;;;;;;;1999.90;999.90;;;17.70;99.90;;;;;;5086477;28;20426;-71
2023/09/20 00:16:30;;;;;;;1999.90;999.90;;;17.80;99.90;;;;;;5089048;28;20428;-71
2023/09/20 00:18:58;;;;;;;1999.90;999.90;;;17.70;99.90;;;;;;5088911;28;20524;-70
2023/09/20 00:21:25;;;;;;;1999.90;999.90;;;17.70;99.90;;;;;;5087375;28;20433;-71
2023/09/20 00:23:52;;;;;;;1999.90;999.90;;;17.80;99.90;;;;;;5083534;28;20512;-70
2023/09/20 00:26:19;;;;;;;1999.90;999.90;;;17.90;99.90;;;;;;5088807;28;20429;-71
2023/09/20 00:28:48;;;;;;;1999.90;999.90;;;17.80;99.90;;;;;;5087985;28;20440;-71
2023/09/20 00:31:15;;;;;;;1999.90;999.90;;;17.80;99.90;;;;;;5088452;28;20508;-71
2023/09/20 00:33:42;;;;;;;1999.90;999.90;;;17.80;99.90;;;;;;5085670;28;20433;-71
2023/09/20 00:36:10;;;;;;;1999.90;999.90;;;17.90;99.90;;;;;;5086637;28;20916;-71
2023/09/20 00:38:37;;;;;;;1999.90;999.90;;;17.80;99.90;;;;;;5082479;28;20503;-70
2023/09/20 00:41:06;;;;;;;1999.90;999.90;;;17.80;99.90;;;;;;5090254;28;20814;-71
2023/09/20 00:43:33;;;;;;;1999.90;999.90;;;17.90;99.90;;;;;;5087420;28;20436;-70
2023/09/20 00:46:00;;;;;;;1999.90;999.90;;;17.90;99.90;;;;;;5088792;28;20542;-71
2023/09/20 00:48:29;;;;;;;1999.90;999.90;;;18.00;99.90;;;;;;5088062;28;20433;-70
2023/09/20 00:50:56;;;;;;;1999.90;999.90;;;18.00;99.90;;;;;;5086317;28;20873;-71
2023/09/20 00:53:25;;;;;;;1999.90;999.90;;;17.90;99.90;;;;;;5078972;28;20423;-72
2023/09/20 00:55:51;;;;;;;1999.90;999.90;;;18.00;99.90;;;;;;5087172;28;20790;-70
2023/09/20 00:58:20;;;;;;;1999.90;999.90;;;18.00;99.90;;;;;;5084968;28;20430;-71
2023/09/20 01:00:51;;;;;;;1999.90;999.90;;;18.10;99.90;;;;;;5085336;28;20439;-71
2023/09/20 01:03:19;;;;;;;1999.90;999.90;;;18.10;99.90;;;;;;5085021;28;20452;-70
2023/09/20 01:05:46;;;;;;;1999.90;999.90;;;18.10;99.90;;;;;;5084670;28;20872;-70
2023/09/20 01:08:14;;;;;;;1999.90;999.90;;;18.00;99.90;;;;;;5085874;28;20430;-70
2023/09/20 01:10:42;;;;;;;1999.90;999.90;;;17.90;99.90;;;;;;5086545;28;20437;-71
2023/09/20 01:13:10;;;;;;;1999.90;999.90;;;18.00;99.90;;;;;;5088259;28;20429;-71
2023/09/20 01:15:38;;;;;;;1999.90;999.90;;;18.20;99.90;;;;;;5087627;28;21120;-70
2023/09/20 01:18:07;;;;;;;1999.90;999.90;;;18.20;99.90;;;;;;5085923;28;20430;-70
2023/09/20 01:20:37;;;;;;;1999.90;999.90;;;18.20;99.90;;;;;;5086852;28;20426;-71
2023/09/20 01:23:05;;;;;;;1999.90;999.90;;;18.20;99.90;;;;;;5081259;28;20920;-71
2023/09/20 01:25:35;;;;;;;1999.90;999.90;;;18.20;99.90;;;;;;5087560;28;20823;-71
2023/09/20 01:28:03;;;;;;;1999.90;999.90;;;18.20;99.90;;;;;;5087181;28;20426;-71
2023/09/20 01:30:32;;;;;;;1999.90;999.90;;;18.20;99.90;;;;;;5086248;28;20498;-71
2023/09/20 01:33:02;;;;;;;1999.90;999.90;;;18.10;99.90;;;;;;5085979;28;20430;-71
2023/09/20 01:35:31;;;;;;;1999.90;999.90;;;17.90;99.90;;;;;;5088915;28;20924;-71
2023/09/20 01:37:58;;;;;;;1999.90;999.90;;;17.90;99.90;;;;;;5086472;28;20504;-71
2023/09/20 01:40:33;;;;;;;1999.90;999.90;;;17.80;99.90;;;;;;5087579;28;20479;-71
2023/09/20 01:43:00;;;;;;;1999.90;999.90;;;17.80;99.90;;;;;;5086426;28;20454;-71
2023/09/20 01:45:27;;;;;;;1999.90;999.90;;;17.90;99.90;;;;;;5087458;28;20418;-70
2023/09/20 01:48:00;;;;;;;1999.90;999.90;;;17.90;99.90;;;;;;5087984;28;20435;-70
2023/09/20 01:50:28;;;;;;;1999.90;999.90;;;17.90;99.90;;;;;;5088619;28;20434;-71
2023/09/20 01:52:56;;;;;;;1999.90;999.90;;;17.90;99.90;;;;;;5086239;28;20434;-71
2023/09/20 01:55:27;;;;;;;1999.90;999.90;;;18.00;99.90;;;;;;5082682;28;20441;-72
2023/09/20 01:57:55;;;;;;;1999.90;999.90;;;18.00;99.90;;;;;;5083924;28;20468;-72
2023/09/20 02:00:24;;;;;;;1999.90;999.90;;;18.00;99.90;;;;;;5082117;28;20439;-71
2023/09/20 02:02:51;;;;;;;1999.90;999.90;;;18.00;99.90;;;;;;5085587;28;20928;-70
2023/09/20 02:05:19;;;;;;;1999.90;999.90;;;18.00;99.90;;;;;;5086846;28;20419;-71
2023/09/20 02:07:50;;;;;;;1999.90;999.90;;;17.90;99.90;;;;;;5082455;28;20421;-71
2023/09/20 02:10:17;;;;;;;1999.90;999.90;;;17.90;99.90;;;;;;5086154;28;20422;-71
2023/09/20 02:12:49;;;;;;;1999.90;999.90;;;18.00;99.90;;;;;;5081509;28;20437;-71
2023/09/20 02:15:17;;;;;;;1999.90;999.90;;;17.80;99.90;;;;;;5088303;28;20443;-71
2023/09/20 02:17:44;;;;;;;1999.90;999.90;;;17.90;99.90;;;;;;5084874;28;20426;-71
2023/09/20 02:20:19;;;;;;;1999.90;999.90;;;17.80;99.90;;;;;;5086126;28;20934;-72
2023/09/20 02:22:47;;;;;;;1999.90;999.90;;;17.90;99.90;;;;;;5091596;28;20914;-71
2023/09/20 02:25:14;;;;;;;1999.90;999.90;;;17.80;99.90;;;;;;5085075;28;20418;-70
2023/09/20 02:27:42;;;;;;;1999.90;999.90;;;17.80;99.90;;;;;;5082447;28;20429;-71
2023/09/20 02:30:15;;;;;;;1999.90;999.90;;;17.80;99.90;;;;;;5092669;28;20453;-72
2023/09/20 02:32:42;;;;;;;1999.90;999.90;;;17.80;99.90;;;;;;5092105;28;20508;-70
2023/09/20 02:35:09;;;;;;;1999.90;999.90;;;17.80;99.90;;;;;;5091598;28;20425;-71
2023/09/20 02:37:37;;;;;;;1999.90;999.90;;;17.90;99.90;;;;;;5086386;28;20425;-71
2023/09/20 02:40:07;;;;;;;1999.90;999.90;;;17.80;99.90;;;;;;5091460;28;20428;-71
2023/09/20 02:42:40;;;;;;;1999.90;999.90;;;17.90;99.90;;;;;;5092451;28;20454;-71
2023/09/20 02:45:10;;;;;;;1999.90;999.90;;;17.80;99.90;;;;;;5087627;28;20431;-70
2023/09/20 02:47:38;;;;;;;1999.90;999.90;;;17.90;99.90;;;;;;5091714;28;20446;-71
2023/09/20 02:50:05;;;;;;;1999.90;999.90;;;17.80;99.90;;;;;;5086813;28;20510;-71
2023/09/20 02:52:33;;;;;;;1999.90;999.90;;;17.90;99.90;;;;;;5077109;28;20442;-70
2023/09/20 02:55:04;;;;;;;1999.90;999.90;;;18.00;99.90;;;;;;5082394;28;20939;-70
2023/09/20 02:57:30;;;;;;;1999.90;999.90;;;17.90;99.90;;;;;;5091790;28;20429;-70
2023/09/20 02:59:58;;;;;;;1999.90;999.90;;;18.10;99.90;;;;;;5090125;28;20473;-71
2023/09/20 03:02:26;;;;;;;1999.90;999.90;;;17.80;99.90;;;;;;5088279;28;20444;-71
2023/09/20 03:04:53;;;;;;;1999.90;999.90;;;17.80;99.90;;;;;;5078679;28;20906;-71
2023/09/20 03:07:21;;;;;;;1999.90;999.90;;;17.80;99.90;;;;;;5088862;28;20429;-71
2023/09/20 03:09:48;;;;;;;1999.90;999.90;;;17.90;99.90;;;;;;5089299;28;20421;-71
2023/09/20 03:12:15;;;;;;;1999.90;999.90;;;17.90;99.90;;;;;;5090777;28;20429;-70
2023/09/20 03:14:44;;;;;;;1999.90;999.90;;;17.90;99.90;;;;;;5090251;28;20818;-71
2023/09/20 03:17:12;;;;;;;1999.90;999.90;;;17.90;99.90;;;;;;5085045;28;20429;-71
2023/09/20 03:19:41;;;;;;;1999.90;999.90;;;17.80;99.90;;;;;;5084180;28;20521;-70
2023/09/20 03:22:08;;;;;;;1999.90;999.90;;;17.80;99.90;;;;;;5077671;28;20520;-70
2023/09/20 03:24:37;;;;;;;1999.90;999.90;;;17.60;99.90;;;;;;5090406;28;20513;-71
2023/09/20 03:27:05;;;;;;;1999.90;999.90;;;17.70;99.90;;;;;;5087829;28;20426;-71
2023/09/20 03:29:32;;;;;;;1999.90;999.90;;;17.70;99.90;;;;;;5091327;28;20859;-72
2023/09/20 03:32:00;;;;;;;1999.90;999.90;;;17.60;99.90;;;;;;5088932;28;20516;-71
2023/09/20 03:34:27;;;;;;;1999.90;999.90;;;17.70;99.90;;;;;;5079275;28;20432;-73
2023/09/20 03:36:57;;;;;;;1999.90;999.90;;;17.70;99.90;;;;;;5092427;28;20513;-74
2023/09/20 03:39:24;;;;;;;1999.90;999.90;;;17.60;99.90;;;;;;5098527;28;20510;-73
2023/09/20 03:41:52;;;;;;;1999.90;999.90;;;17.60;99.90;;;;;;5099021;28;20422;-75
2023/09/20 03:44:19;;;;;;;1999.90;999.90;;;17.60;99.90;;;;;;5100626;28;20440;-74
2023/09/20 03:46:47;;;;;;;1999.90;999.90;;;17.60;99.90;;;;;;5099500;28;20426;-72
2023/09/20 03:49:14;;;;;;;1999.90;999.90;;;17.70;99.90;;;;;;5095281;28;20456;-75
2023/09/20 03:51:41;;;;;;;1999.90;999.90;;;17.60;99.90;;;;;;5097432;28;20465;-72
2023/09/20 03:54:09;;;;;;;1999.90;999.90;;;17.60;99.90;;;;;;5092079;28;20438;-73
2023/09/20 03:56:37;;;;;;;1999.90;999.90;;;17.60;99.90;;;;;;5100328;28;20422;-73
2023/09/20 03:59:04;;;;;;;1999.90;999.90;;;17.50;99.90;;;;;;5096464;28;20442;-74
2023/09/20 04:01:30;;;;;;;1999.90;999.90;;;17.60;99.90;;;;;;5091716;28;20507;-74
2023/09/20 04:03:58;;;;;;;1999.90;999.90;;;17.70;99.90;;;;;;5098009;28;20448;-74
2023/09/20 04:06:26;;;;;;;1999.90;999.90;;;17.70;99.90;;;;;;5101263;28;20440;-74
2023/09/20 04:08:53;;;;;;;1999.90;999.90;;;17.70;99.90;;;;;;5094028;28;20430;-74
2023/09/20 04:11:21;;;;;;;1999.90;999.90;;;17.80;99.90;;;;;;5086020;28;20435;-74
2023/09/20 04:13:49;;;;;;;1999.90;999.90;;;17.80;99.90;;;;;;5091000;28;20429;-72
2023/09/20 04:16:16;;;;;;;1999.90;999.90;;;17.80;99.90;;;;;;5092032;28;20456;-73
2023/09/20 04:18:44;;;;;;;1999.90;999.90;;;17.70;99.90;;;;;;5092029;28;20422;-74
2023/09/20 04:21:10;;;;;;;1999.90;999.90;;;17.70;99.90;;;;;;5093419;28;20438;-74
2023/09/20 04:23:38;;;;;;;1999.90;999.90;;;17.70;99.90;;;;;;5090549;28;20410;-73
2023/09/20 04:26:04;;;;;;;1999.90;999.90;;;17.70;99.90;;;;;;5099226;28;20446;-74
2023/09/20 04:28:33;;;;;;;1999.90;999.90;;;17.70;99.90;;;;;;5097675;28;20430;-74
2023/09/20 04:30:59;;;;;;;1999.90;999.90;;;17.60;99.90;;;;;;5098158;28;20433;-72
2023/09/20 04:33:27;;;;;;;1999.90;999.90;;;17.70;99.90;;;;;;5091595;28;20429;-75
2023/09/20 04:35:57;;;;;;;1999.90;999.90;;;17.60;99.90;;;;;;5088181;28;20430;-74
2023/09/20 04:38:24;;;;;;;1999.90;999.90;;;17.50;99.90;;;;;;5088204;28;20538;-72
2023/09/20 04:40:50;;;;;;;1999.90;999.90;;;17.40;99.90;;;;;;5097219;28;20436;-73
2023/09/20 04:43:17;;;;;;;1999.90;999.90;;;17.40;99.90;;;;;;5093510;28;20769;-74
2023/09/20 04:45:45;;;;;;;1999.90;999.90;;;17.30;99.90;;;;;;5089216;28;20440;-74
2023/09/20 04:48:13;;;;;;;1999.90;999.90;;;17.40;99.90;;;;;;5093069;28;20434;-74
2023/09/20 04:50:39;;;;;;;1999.90;999.90;;;17.40;99.90;;;;;;5086524;28;20441;-74
2023/09/20 04:53:06;;;;;;;1999.90;999.90;;;17.40;99.90;;;;;;5088078;28;20437;-74
2023/09/20 04:55:34;;;;;;;1999.90;999.90;;;17.30;99.90;;;;;;5090761;28;20426;-74
2023/09/20 04:58:01;;;;;;;1999.90;999.90;;;17.30;99.90;;;;;;5086900;28;20804;-74
2023/09/20 05:00:33;;;;;;;1999.90;999.90;;;17.30;99.90;;;;;;5085687;28;20519;-74
2023/09/20 05:03:02;;;;;;;1999.90;999.90;;;17.30;99.90;;;;;;5090791;28;20427;-74
2023/09/20 05:05:28;;;;;;;1999.90;999.90;;;17.20;99.90;;;;;;5088676;28;20853;-73
2023/09/20 05:07:56;;;;;;;1999.90;999.90;;;17.20;99.90;;;;;;5092067;28;20441;-72
2023/09/20 05:10:23;;;;;;;1999.90;999.90;;;17.20;99.90;;;;;;5093136;28;20517;-73
2023/09/20 05:12:50;;;;;;;1999.90;999.90;;;17.20;99.90;;;;;;5091389;28;20434;-74
2023/09/20 05:15:17;;;;;;;1999.90;999.90;;;17.20;99.90;;;;;;5094278;28;20430;-74
2023/09/20 05:17:44;;;;;;;1999.90;999.90;;;17.10;99.90;;;;;;5092990;28;20425;-74
2023/09/20 05:20:13;;;;;;;1999.90;999.90;;;17.10;99.90;;;;;;5095513;28;20541;-74
2023/09/20 05:22:40;;;;;;;1999.90;999.90;;;17.10;99.90;;;;;;5092184;28;20444;-73
2023/09/20 05:25:08;;;;;;;1999.90;999.90;;;17.20;99.90;;;;;;5098291;28;20429;-74
2023/09/20 05:27:35;;;;;;;1999.90;999.90;;;17.30;99.90;;;;;;5095897;28;20426;-74
2023/09/20 05:30:02;;;;;;;1999.90;999.90;;;17.40;99.90;;;;;;5095969;28;20441;-73
2023/09/20 05:32:28;;;;;;;1999.90;999.90;;;17.40;99.90;;;;;;5086106;28;20436;-74
2023/09/20 05:34:55;;;;;;;1999.90;999.90;;;17.40;99.90;;;;;;5082745;28;20425;-75
2023/09/20 05:37:23;;;;;;;1999.90;999.90;;;17.50;99.90;;;;;;5086203;28;20487;-74
2023/09/20 05:39:50;;;;;;;1999.90;999.90;;;17.60;99.90;;;;;;5090883;28;20410;-74
2023/09/20 05:42:17;;;;;;;1999.90;999.90;;;17.60;99.90;;;;;;5090523;28;20418;-72
2023/09/20 05:44:44;;;;;;;1999.90;999.90;;;17.60;99.90;;;;;;5089942;28;20422;-74
2023/09/20 05:47:10;;;;;;;1999.90;999.90;;;17.60;99.90;;;;;;5081962;28;20444;-74
2023/09/20 05:49:37;;;;;;;1999.90;999.90;;;17.60;99.90;;;;;;5090547;28;20445;-74
2023/09/20 05:52:06;;;;;;;1999.90;999.90;;;17.60;99.90;;;;;;5084962;28;20590;-73
2023/09/20 05:54:35;;;;;;;1999.90;999.90;;;17.70;99.90;;;;;;5078829;28;20806;-74
2023/09/20 05:57:02;;;;;;;1999.90;999.90;;;17.80;99.90;;;;;;5086824;28;20421;-74
2023/09/20 05:59:29;;;;;;;1999.90;999.90;;;17.90;99.90;;;;;;5088491;28;20452;-74
2023/09/20 06:01:56;;;;;;;1999.90;999.90;;;17.80;99.90;;;;;;5089638;28;20466;-74
2023/09/20 06:04:23;;;;;;;1999.90;999.90;;;17.80;99.90;;;;;;5090584;28;20430;-73
2023/09/20 06:06:50;;;;;;;1999.90;999.90;;;17.90;99.90;;;;;;5092772;28;20434;-75
2023/09/20 06:09:19;;;;;;;1999.90;999.90;;;17.90;99.90;;;;;;5089254;28;20426;-74
2023/09/20 06:11:47;;;;;;;1999.90;999.90;;;17.90;99.90;;;;;;5085201;28;22431;-74
2023/09/20 06:14:16;;;;;;;1999.90;999.90;;;17.90;99.90;;;;;;5081596;28;20432;-74
2023/09/20 06:16:43;;;;;;;1999.90;999.90;;;17.90;99.90;;;;;;5087454;28;20421;-72
2023/09/20 06:19:09;;;;;;;1999.90;999.90;;;18.00;99.90;;;;;;5084089;28;20422;-74
2023/09/20 06:21:38;;;;;;;1999.90;999.90;;;18.10;99.90;;;;;;5086351;28;20934;-73
2023/09/20 06:24:09;;;;;;;1999.90;999.90;;;18.20;99.90;;;;;;5078784;28;20434;-73
2023/09/20 06:26:37;;;;;;;1999.90;999.90;;;18.20;99.90;;;;;;5076936;28;20436;-73
2023/09/20 06:29:05;;;;;;;1999.90;999.90;;;18.70;99.90;;;;;;5079833;28;20923;-73
2023/09/20 06:31:32;;;;;;;1999.90;999.90;;;18.30;99.90;;;;;;5084549;28;20431;-74
2023/09/20 06:33:59;;;;;;;1999.90;999.90;;;18.30;99.90;;;;;;5088511;28;20421;-74
2023/09/20 06:36:27;;;;;;;1999.90;999.90;;;18.20;99.90;;;;;;5085480;28;21184;-73
2023/09/20 06:38:54;;;;;;;1999.90;999.90;;;18.30;99.90;;;;;;5084343;28;20428;-74
2023/09/20 06:41:20;;;;;;;1999.90;999.90;;;18.60;99.90;;;;;;5081345;28;20434;-73
2023/09/20 06:43:47;;;;;;;1999.90;999.90;;;18.80;99.90;;;;;;5084946;28;20428;-74
2023/09/20 06:46:15;;;;;;;1999.90;999.90;;;18.90;99.90;;;;;;5085293;28;20802;-73
2023/09/20 06:48:42;;;;;;;1999.90;999.90;;;18.80;99.90;;;;;;5081201;28;20517;-74
2023/09/20 06:51:09;;;;;;;1999.90;999.90;;;19.00;99.90;;;;;;5081975;28;20426;-71
2023/09/20 06:53:36;;;;;;;1999.90;999.90;;;19.10;99.90;;;;;;5079750;28;20449;-74
2023/09/20 06:56:03;;;;;;;1999.90;999.90;;;19.30;99.90;;;;;;5079714;28;20426;-71
2023/09/20 06:58:34;;;;;;;1999.90;999.90;;;19.40;99.90;;;;;;5081761;28;20923;-74
2023/09/20 07:01:03;;;;;;;1999.90;999.90;;;19.50;99.90;;;;;;5083669;28;20426;-74
2023/09/20 07:03:32;;;;;;;1999.90;999.90;;;19.50;99.90;;;;;;5082126;28;20773;-72
2023/09/20 07:06:00;;;;;;;1999.90;999.90;;;19.60;99.90;;;;;;5087350;28;20457;-74
2023/09/20 07:08:33;;;;;;;1999.90;999.90;;;19.70;99.90;;;;;;5085097;28;20423;-71
2023/09/20 07:11:00;;;;;;;1999.90;999.90;;;19.90;99.90;;;;;;5086855;28;20793;-74
2023/09/20 07:13:26;;;;;;;1999.90;999.90;;;19.90;99.90;;;;;;5081817;28;20426;-74
2023/09/20 07:15:55;;;;;;;1999.90;999.90;;;20.00;99.90;;;;;;5087021;28;20437;-74
2023/09/20 07:18:22;;;;;;;1999.90;999.90;;;20.20;99.90;;;;;;5086041;28;20496;-74
2023/09/20 07:20:54;;;;;;;1999.90;999.90;;;20.20;99.90;;;;;;5084843;28;20801;-73
2023/09/20 07:23:21;;;;;;;1999.90;999.90;;;20.50;99.90;;;;;;5085294;28;20977;-74
2023/09/20 07:25:49;;;;;;;1999.90;999.90;;;20.60;99.90;;;;;;5085161;28;20430;-73
2023/09/20 07:28:17;;;;;;;1999.90;999.90;;;20.70;99.90;;;;;;5085834;28;20436;-74
2023/09/20 07:30:45;;;;;;;1999.90;999.90;;;20.60;99.90;;;;;;5090116;28;20937;-74
2023/09/20 07:33:12;;;;;;;1999.90;999.90;;;20.80;99.90;;;;;;5085154;28;20421;-73
2023/09/20 07:35:47;;;;;;;1999.90;999.90;;;20.70;99.90;;;;;;5083737;28;20431;-73
2023/09/20 07:38:25;;;;;;;1999.90;999.90;;;20.80;99.90;;;;;;5087962;28;20438;-73
2023/09/20 07:40:53;;;;;;;1999.90;999.90;;;20.80;99.90;;;;;;5084521;28;20453;-74
2023/09/20 07:43:21;;;;;;;1999.90;999.90;;;20.90;99.90;;;;;;5089508;28;20433;-74
2023/09/20 07:45:49;;;;;;;1999.90;999.90;;;21.00;99.90;;;;;;5084633;28;20431;-74
2023/09/20 07:48:21;;;;;;;1999.90;999.90;;;21.00;99.90;;;;;;5082352;28;20478;-71
2023/09/20 07:50:50;;;;;;;1999.90;999.90;;;21.00;99.90;;;;;;5085520;28;20460;-73
2023/09/20 07:53:19;;;;;;;1999.90;999.90;;;20.80;99.90;;;;;;5086695;28;20429;-74
2023/09/20 07:55:57;;;;;;;1999.90;999.90;;;20.70;99.90;;;;;;5084278;28;20618;-73
2023/09/20 07:58:24;;;;;;;1999.90;999.90;;;20.80;99.90;;;;;;5084467;28;20417;-73
2023/09/20 08:00:52;;;;;;;1999.90;999.90;;;20.80;99.90;;;;;;5085577;28;20957;-73
2023/09/20 08:03:20;;;;;;;1999.90;999.90;;;20.80;99.90;;;;;;5083574;28;21003;-74
2023/09/20 08:05:48;;;;;;;1999.90;999.90;;;21.00;99.90;;;;;;5084790;28;20500;-73
2023/09/20 08:08:15;;;;;;;1999.90;999.90;;;21.10;99.90;;;;;;5079293;28;20434;-73
2023/09/20 08:10:44;;;;;;;1999.90;999.90;;;21.20;99.90;;;;;;5086197;28;20433;-73
2023/09/20 08:13:11;;;;;;;1999.90;999.90;;;21.20;99.90;;;;;;5078019;28;20458;-71
2023/09/20 08:15:42;;;;;;;1999.90;999.90;;;21.40;99.90;;;;;;5080662;28;20435;-70
2023/09/20 08:20:54;;;;;;;1999.90;999.90;;;21.90;99.90;;;;;;5083811;28;20425;-73
2023/09/20 09:02:02;;;;;;;1999.90;999.90;;;23.60;99.90;;;;;;5084061;28;20897;-75
2023/09/20 09:04:29;;;;;;;1999.90;999.90;;;23.80;99.90;;;;;;5086356;28;20429;-73
2023/09/20 09:06:55;;;;;;;1999.90;999.90;;;23.80;99.90;;;;;;5089753;28;20429;-73
2023/09/20 09:09:22;;;;;;;1999.90;999.90;;;23.70;99.90;;;;;;5091212;28;20520;-74
2023/09/20 09:11:49;;;;;;;1999.90;999.90;;;23.50;99.90;;;;;;5091105;28;20427;-75
2023/09/20 09:14:17;;;;;;;1999.90;999.90;;;23.30;99.90;;;;;;5093365;28;20438;-74
2023/09/20 09:16:44;;;;;;;1999.90;999.90;;;23.20;99.90;;;;;;5084735;28;20460;-74
2023/09/20 09:19:10;;;;;;;1999.90;999.90;;;23.60;99.90;;;;;;5092705;28;20432;-73
2023/09/20 09:21:37;;;;;;;1999.90;999.90;;;23.30;99.90;;;;;;5086904;28;20430;-74
2023/09/20 09:24:05;;;;;;;1999.90;999.90;;;23.10;99.90;;;;;;5091348;28;20456;-74
2023/09/20 09:26:32;;;;;;;1999.90;999.90;;;22.90;99.90;;;;;;5090251;28;20442;-73
2023/09/20 09:28:59;;;;;;;1999.90;999.90;;;22.60;99.90;;;;;;5081490;28;21056;-74
2023/09/20 09:31:29;;;;;;;1999.90;999.90;;;22.60;99.90;;;;;;5093889;28;20441;-74
2023/09/20 09:34:01;;;;;;;1999.90;999.90;;;22.70;99.90;;;;;;5090724;28;20479;-75
2023/09/20 09:36:28;;;;;;;1999.90;999.90;;;23.00;99.90;;;;;;5092444;28;20430;-72
2023/09/20 09:39:08;;;;;;;1999.90;999.90;;;22.90;99.90;;;;;;5087930;28;20426;-74
2023/09/20 09:41:41;;;;;;;1999.90;999.90;;;22.60;99.90;;;;;;5087596;28;20434;-72
2023/09/20 09:44:08;;;;;;;1999.90;999.90;;;22.90;99.90;;;;;;5091410;28;20426;-74
2023/09/20 09:46:38;;;;;;;1999.90;999.90;;;23.00;99.90;;;;;;5092180;28;20438;-74
2023/09/20 09:49:10;;;;;;;1999.90;999.90;;;23.70;99.90;;;;;;5085824;28;20419;-73
2023/09/20 09:51:42;;;;;;;1999.90;999.90;;;23.70;99.90;;;;;;5084435;28;20457;-74
2023/09/20 09:54:10;;;;;;;1999.90;999.90;;;24.20;99.90;;;;;;5084300;28;20430;-73
2023/09/20 09:56:38;;;;;;;1999.90;999.90;;;24.80;99.90;;;;;;5083899;28;20919;-73
2023/09/20 09:59:04;;;;;;;1999.90;999.90;;;24.90;99.90;;;;;;5086579;28;20544;-74
2023/09/20 10:01:36;;;;;;;1999.90;999.90;;;24.80;99.90;;;;;;5087780;28;20784;-73
2023/09/20 10:04:08;;;;;;;1999.90;999.90;;;24.10;99.90;;;;;;5086983;28;20434;-72
2023/09/20 10:06:37;;;;;;;1999.90;999.90;;;23.80;99.90;;;;;;5088399;28;20421;-74
2023/09/20 10:09:09;;;;;;;1999.90;999.90;;;24.00;99.90;;;;;;5086947;28;20513;-75
2023/09/20 10:11:37;;;;;;;1999.90;999.90;;;24.30;99.90;;;;;;5087720;28;20426;-74
2023/09/20 10:14:07;;;;;;;1999.90;999.90;;;24.30;99.90;;;;;;5083753;28;20423;-74
2023/09/20 10:16:35;;;;;;;1999.90;999.90;;;24.70;99.90;;;;;;5086856;28;20501;-74
2023/09/20 10:19:03;;;;;;;1999.90;999.90;;;24.80;99.90;;;;;;5086233;28;20426;-73
2023/09/20 10:21:32;;;;;;;1999.90;999.90;;;24.90;99.30;;;;;;5090958;28;20422;-72
2023/09/20 10:24:00;;;;;;;1999.90;999.90;;;25.00;99.90;;;;;;5086334;28;20919;-74
2023/09/20 10:26:29;;;;;;;1999.90;999.90;;;25.40;99.50;;;;;;5080924;28;20426;-74
2023/09/20 10:28:58;;;;;;;1999.90;999.90;;;24.90;99.80;;;;;;5090749;28;20471;-71
2023/09/20 10:31:29;;;;;;;1999.90;999.90;;;24.60;99.90;;;;;;5093230;28;20422;-74
2023/09/20 10:33:57;;;;;;;1999.90;999.90;;;24.30;99.90;;;;;;5093006;28;20434;-75
2023/09/20 10:36:25;;;;;;;1999.90;999.90;;;24.60;99.90;;;;;;5091154;28;20425;-74
2023/09/20 10:39:21;;;;;;;1999.90;999.90;;;24.30;99.90;;;;;;5090611;28;20427;-74
2023/09/20 10:41:51;;;;;;;1999.90;999.90;;;24.30;99.90;;;;;;5096138;28;20443;-74
2023/09/20 10:44:30;;;;;;;1999.90;999.90;;;24.40;99.90;;;;;;5095135;28;20426;-74
2023/09/20 10:46:59;;;;;;;1999.90;999.90;;;24.30;99.90;;;;;;5094551;28;20701;-74
2023/09/20 10:49:51;;;;;;;1999.90;999.90;;;24.40;99.90;;;;;;5093913;28;20430;-74
2023/09/20 10:52:54;;;;;;;1999.90;999.90;;;24.20;99.90;;;;;;5093930;28;20421;-74
2023/09/20 10:55:38;;;;;;;1999.90;999.90;;;23.90;99.90;;;;;;5089167;28;20429;-73
2023/09/20 10:58:07;;;;;;;1999.90;999.90;;;24.50;99.90;;;;;;5086244;28;20514;-73
2023/09/20 11:00:34;;;;;;;1999.90;999.90;;;24.40;99.90;;;;;;5093626;28;20456;-72
2023/09/20 11:03:05;;;;;;;1999.90;999.90;;;24.20;99.90;;;;;;5093871;28;20445;-73
2023/09/20 11:05:32;;;;;;;1999.90;999.90;;;24.00;99.90;;;;;;5093961;28;20437;-72
2023/09/20 11:08:07;;;;;;;1999.90;999.90;;;23.90;99.90;;;;;;5091010;28;21071;-73
2023/09/20 11:10:35;;;;;;;1999.90;999.90;;;24.10;99.90;;;;;;5090985;28;20424;-73
2023/09/20 11:13:06;;;;;;;1999.90;999.90;;;24.10;99.90;;;;;;5087693;28;20433;-73
2023/09/20 11:15:40;;;;;;;1999.90;999.90;;;23.90;99.90;;;;;;5093453;28;20434;-72
2023/09/20 11:18:07;;;;;;;1999.90;999.90;;;24.30;99.90;;;;;;5093922;28;20438;-71
2023/09/20 11:20:34;;;;;;;1999.90;999.90;;;24.40;99.90;;;;;;5091652;28;20444;-74
2023/09/20 11:23:02;;;;;;;1999.90;999.90;;;24.60;99.90;;;;;;5091649;28;20433;-73
2023/09/20 11:25:29;;;;;;;1999.90;999.90;;;24.70;99.90;;;;;;5086620;28;20432;-73
2023/09/20 11:27:56;;;;;;;1999.90;999.90;;;24.90;99.90;;;;;;5090574;28;20542;-73
2023/09/20 11:30:28;;;;;;;1999.90;999.90;;;24.80;99.50;;;;;;5086045;28;20422;-73
2023/09/20 11:32:55;;;;;;;1999.90;999.90;;;24.80;99.10;;;;;;5084548;28;20436;-73
2023/09/20 11:35:33;;;;;;;1999.90;999.90;;;24.80;99.90;;;;;;5089054;28;20807;-73
2023/09/20 11:38:00;;;;;;;1999.90;999.90;;;25.00;99.10;;;;;;5087252;28;20449;-74
2023/09/20 11:40:27;;;;;;;1999.90;999.90;;;24.90;99.30;;;;;;5088198;28;20768;-73
2023/09/20 11:42:54;;;;;;;1999.90;999.90;;;25.10;99.10;;;;;;5086770;28;21088;-73
2023/09/20 11:45:25;;;;;;;1999.90;999.90;;;25.30;98.40;;;;;;5089657;28;20429;-73
2023/09/20 11:47:53;;;;;;;1999.90;999.90;;;25.30;98.40;;;;;;5090797;28;20457;-70
2023/09/20 11:50:24;;;;;;;1999.90;999.90;;;25.20;98.70;;;;;;5084063;28;20531;-73
2023/09/20 11:52:53;;;;;;;1999.90;999.90;;;25.00;98.60;;;;;;5087053;28;20425;-71
2023/09/20 11:55:21;;;;;;;1999.90;999.90;;;25.10;99.00;;;;;;5080800;28;20800;-74
2023/09/20 11:57:49;;;;;;;1999.90;999.90;;;25.30;98.30;;;;;;5088220;28;20555;-73
2023/09/20 12:00:17;;;;;;;1999.90;999.90;;;25.50;98.50;;;;;;5086603;28;20413;-73
2023/09/20 12:02:44;;;;;;;1999.90;999.90;;;25.50;98.30;;;;;;5089392;28;20875;-71
2023/09/20 12:05:12;;;;;;;1999.90;999.90;;;25.40;97.70;;;;;;5092538;28;20419;-72
2023/09/20 12:07:39;;;;;;;1999.90;999.90;;;25.30;98.50;;;;;;5092091;28;20795;-73
2023/09/20 12:10:06;;;;;;;1999.90;999.90;;;25.50;97.80;;;;;;5092174;28;20426;-73
2023/09/20 12:12:33;;;;;;;1999.90;999.90;;;25.50;97.80;;;;;;5092020;28;20467;-72
2023/09/20 12:15:00;;;;;;;1999.90;999.90;;;25.50;97.50;;;;;;5083376;28;21019;-73
2023/09/20 12:17:27;;;;;;;1999.90;999.90;;;25.50;97.60;;;;;;5083818;28;20432;-73
2023/09/20 12:19:53;;;;;;;1999.90;999.90;;;25.80;97.60;;;;;;5085848;28;21866;-73
2023/09/20 12:22:21;;;;;;;1999.90;999.90;;;25.50;97.80;;;;;;5084387;28;20426;-73
2023/09/20 12:24:48;;;;;;;1999.90;999.90;;;25.60;98.60;;;;;;5089305;28;20420;-73
2023/09/20 12:27:17;;;;;;;1999.90;999.90;;;25.20;97.90;;;;;;5092042;28;21038;-70
2023/09/20 12:29:44;;;;;;;1999.90;999.90;;;25.10;98.50;;;;;;5087824;28;20483;-70
2023/09/20 12:32:11;;;;;;;1999.90;999.90;;;25.60;99.00;;;;;;5081586;28;20430;-71
2023/09/20 12:34:37;;;;;;;1999.90;999.90;;;25.50;98.40;;;;;;5084839;28;20942;-71
2023/09/20 12:37:05;;;;;;;1999.90;999.90;;;25.30;98.20;;;;;;5088962;28;20430;-72
2023/09/20 12:39:36;;;;;;;1999.90;999.90;;;25.40;98.70;;;;;;5082808;28;20438;-72
2023/09/20 12:42:03;;;;;;;1999.90;999.90;;;25.70;98.60;;;;;;5080650;28;20492;-72
2023/09/20 12:44:31;;;;;;;1999.90;999.90;;;25.70;97.90;;;;;;5091111;28;20417;-71
2023/09/20 12:46:58;;;;;;;1999.90;999.90;;;25.90;98.40;;;;;;5089528;28;20457;-72